Terminal Aerodrome Forecast
Issued by NWS

Home | Current Version | Previous Version | Text Only | Print | Product List | Glossary On
Versions: 1 2 3 4 5 6 7 8 9 10 11 12 13 14 15 16 17 18 19 20 21 22 23
000
FTUS41 KALY 050341 AAB
TAFPSF
TAF AMD
KPSF 050341Z 0504/0524 00000KT 2SM BR BKN002
      TEMPO 0504/0506 4SM BR SCT002
     FM050600 00000KT 1/2SM FG VV001
     FM051200 29004KT P6SM FEW050
     FM051700 29007KT P6SM SCT200=

USA.gov is the U.S. government's official web portal to all federal, state and local government web resources and services.